Time;durP1;ratioP1;P1;durP2;ratioP2;P2;SDS_P1;SDS_P2;PMS_P1;PMS_P2;Temp;Humidity;BMP_temperature;BMP_pressure;BME280_temperature;BME280_humidity;BME280_pressure;Samples;Min_cycle;Max_cycle;Signal;HPM_P1;HPM_P2
2023/05/20 00:01:58;;;;;;;29.35;15.43;;;;;;;;;;5051193;28;20028;-78
2023/05/20 00:04:24;;;;;;;32.05;15.10;;;;;;;;;;5051075;28;20085;-77
2023/05/20 00:06:49;;;;;;;27.58;15.73;;;;;;;;;;5051016;28;20071;-78
2023/05/20 00:09:16;;;;;;;26.77;15.07;;;;;;;;;;5033301;28;20025;-79
2023/05/20 00:11:42;;;;;;;29.02;16.02;;;;;;;;;;5051193;28;20044;-78
2023/05/20 00:14:07;;;;;;;27.58;15.63;;;;;;;;;;5051154;28;20481;-78
2023/05/20 00:16:33;;;;;;;31.40;15.38;;;;;;;;;;5050994;28;20474;-78
2023/05/20 00:18:58;;;;;;;28.23;14.30;;;;;;;;;;5051123;28;20454;-80
2023/05/20 00:21:24;;;;;;;24.08;15.02;;;;;;;;;;5032578;28;20113;-77
2023/05/20 00:23:50;;;;;;;27.38;15.95;;;;;;;;;;5033488;28;20086;-78
2023/05/20 00:26:15;;;;;;;30.70;15.43;;;;;;;;;;5051254;28;20032;-78
2023/05/20 00:28:43;;;;;;;27.30;15.32;;;;;;;;;;5051089;28;20059;-77
2023/05/20 00:31:08;;;;;;;28.05;15.52;;;;;;;;;;5033039;28;20029;-76
2023/05/20 00:33:35;;;;;;;29.38;16.13;;;;;;;;;;5033059;28;20048;-77
2023/05/20 00:36:02;;;;;;;28.10;15.70;;;;;;;;;;5032424;28;20037;-78
2023/05/20 00:38:27;;;;;;;28.48;16.45;;;;;;;;;;5050811;28;20031;-77
2023/05/20 00:40:53;;;;;;;27.42;14.55;;;;;;;;;;5050729;28;20100;-77
2023/05/20 00:43:19;;;;;;;26.95;15.60;;;;;;;;;;5033105;28;20813;-76
2023/05/20 00:45:46;;;;;;;25.33;14.20;;;;;;;;;;5032224;28;20455;-80
2023/05/20 00:48:12;;;;;;;26.00;15.15;;;;;;;;;;5032543;28;20025;-77
2023/05/20 00:50:39;;;;;;;31.98;16.25;;;;;;;;;;5050258;28;20046;-78
2023/05/20 00:53:05;;;;;;;29.05;15.30;;;;;;;;;;5032246;28;20120;-76
2023/05/20 00:55:33;;;;;;;23.70;14.73;;;;;;;;;;5032157;28;20049;-79
2023/05/20 00:57:58;;;;;;;28.52;15.23;;;;;;;;;;5032530;28;20029;-77
2023/05/20 01:00:24;;;;;;;25.75;14.80;;;;;;;;;;5039367;28;20074;-78
2023/05/20 01:02:49;;;;;;;24.67;14.07;;;;;;;;;;5053135;28;20029;-78
2023/05/20 01:05:15;;;;;;;23.88;14.23;;;;;;;;;;5050274;28;20677;-77
2023/05/20 01:07:41;;;;;;;28.35;14.65;;;;;;;;;;5032791;28;20384;-78
2023/05/20 01:10:08;;;;;;;29.33;16.42;;;;;;;;;;5015579;28;20037;-80
2023/05/20 01:12:47;;;;;;;27.63;15.02;;;;;;;;;;5032017;28;20059;-78
2023/05/20 01:15:15;;;;;;;26.90;15.50;;;;;;;;;;5015615;28;20036;-76
2023/05/20 01:17:45;;;;;;;30.05;16.45;;;;;;;;;;5050404;28;20466;-78
2023/05/20 01:20:13;;;;;;;28.55;16.05;;;;;;;;;;5050184;28;20033;-77
2023/05/20 01:22:58;;;;;;;27.45;14.95;;;;;;;;;;5050246;28;20333;-78
2023/05/20 01:25:25;;;;;;;28.52;15.35;;;;;;;;;;5031586;28;20135;-77
2023/05/20 01:27:51;;;;;;;28.08;14.27;;;;;;;;;;5031620;28;20029;-77
2023/05/20 01:30:17;;;;;;;27.30;15.57;;;;;;;;;;5031812;28;20025;-78
2023/05/20 01:32:56;;;;;;;30.63;15.70;;;;;;;;;;5035223;28;20098;-77
2023/05/20 01:35:22;;;;;;;27.52;14.98;;;;;;;;;;5036435;28;20033;-77
2023/05/20 01:37:49;;;;;;;25.10;15.02;;;;;;;;;;5035594;28;20060;-78
2023/05/20 01:40:15;;;;;;;25.48;14.38;;;;;;;;;;5053495;28;20028;-76
2023/05/20 01:42:44;;;;;;;28.83;15.85;;;;;;;;;;5035631;28;20017;-77
2023/05/20 01:45:10;;;;;;;30.80;15.93;;;;;;;;;;5036178;28;20025;-77
2023/05/20 01:47:35;;;;;;;27.77;14.82;;;;;;;;;;5037061;28;20031;-77
2023/05/20 01:50:01;;;;;;;32.45;16.15;;;;;;;;;;5036634;28;20047;-79
2023/05/20 01:52:26;;;;;;;26.02;15.43;;;;;;;;;;5036107;28;20091;-76
2023/05/20 01:54:52;;;;;;;26.50;14.82;;;;;;;;;;5036179;28;20024;-77
2023/05/20 01:57:19;;;;;;;27.45;15.68;;;;;;;;;;5055592;28;20021;-77
2023/05/20 01:59:45;;;;;;;30.27;14.43;;;;;;;;;;5036982;28;20452;-78
2023/05/20 02:02:10;;;;;;;28.88;14.15;;;;;;;;;;5036988;28;20037;-77
2023/05/20 02:04:36;;;;;;;29.70;14.60;;;;;;;;;;5035733;28;20032;-78
2023/05/20 02:07:01;;;;;;;27.98;15.18;;;;;;;;;;5035004;28;20028;-77
2023/05/20 02:09:27;;;;;;;28.42;15.18;;;;;;;;;;5035180;28;20060;-76
2023/05/20 02:11:53;;;;;;;26.40;15.68;;;;;;;;;;5035409;28;20025;-77
2023/05/20 02:14:19;;;;;;;27.02;15.60;;;;;;;;;;5054082;28;20131;-77
2023/05/20 02:16:48;;;;;;;26.60;13.95;;;;;;;;;;5035406;28;20049;-78
2023/05/20 02:19:18;;;;;;;25.20;14.43;;;;;;;;;;5035394;28;20036;-77
2023/05/20 02:21:45;;;;;;;27.42;15.88;;;;;;;;;;5054515;28;20548;-77
2023/05/20 02:24:11;;;;;;;25.77;14.10;;;;;;;;;;5036181;28;20033;-78
2023/05/20 02:26:36;;;;;;;26.50;15.48;;;;;;;;;;5036306;28;20108;-77
2023/05/20 02:29:02;;;;;;;28.95;14.43;;;;;;;;;;5054090;28;20028;-77
2023/05/20 02:31:28;;;;;;;25.55;14.93;;;;;;;;;;5036736;28;20024;-76
2023/05/20 02:33:53;;;;;;;26.83;15.18;;;;;;;;;;5036057;28;20029;-77
2023/05/20 02:36:18;;;;;;;26.88;15.27;;;;;;;;;;5054507;28;20044;-77
2023/05/20 02:38:44;;;;;;;26.80;15.50;;;;;;;;;;5035903;28;20028;-77
2023/05/20 02:41:09;;;;;;;27.27;15.77;;;;;;;;;;5035255;28;20025;-77
2023/05/20 02:43:35;;;;;;;29.42;15.18;;;;;;;;;;5034436;28;20021;-77
2023/05/20 02:46:05;;;;;;;26.92;14.32;;;;;;;;;;5036217;28;20720;-77
2023/05/20 02:48:31;;;;;;;25.60;14.02;;;;;;;;;;5037084;28;20497;-76
2023/05/20 02:50:58;;;;;;;28.13;15.18;;;;;;;;;;5055829;28;20021;-76
2023/05/20 02:53:23;;;;;;;27.75;15.48;;;;;;;;;;5039170;28;20028;-78
2023/05/20 02:55:49;;;;;;;27.45;15.80;;;;;;;;;;5041883;28;20041;-77
2023/05/20 02:58:16;;;;;;;27.17;14.88;;;;;;;;;;5043208;28;20025;-77
2023/05/20 03:00:42;;;;;;;32.60;17.02;;;;;;;;;;5058986;28;20032;-76
2023/05/20 03:03:09;;;;;;;30.83;16.48;;;;;;;;;;5037438;28;20171;-75
2023/05/20 03:05:36;;;;;;;30.58;15.90;;;;;;;;;;5041528;28;20032;-77
2023/05/20 03:08:09;;;;;;;34.30;16.92;;;;;;;;;;5036713;28;20120;-75
2023/05/20 03:10:39;;;;;;;29.02;16.25;;;;;;;;;;5035169;28;20028;-77
2023/05/20 03:13:07;;;;;;;30.77;17.02;;;;;;;;;;5035037;28;20029;-77
2023/05/20 03:15:44;;;;;;;26.00;15.60;;;;;;;;;;5018045;28;20455;-76
2023/05/20 03:18:10;;;;;;;31.40;16.95;;;;;;;;;;5033718;28;20035;-79
2023/05/20 03:20:37;;;;;;;30.10;15.90;;;;;;;;;;5034142;28;20031;-77
2023/05/20 03:23:06;;;;;;;30.83;16.38;;;;;;;;;;5017504;28;20489;-75
2023/05/20 03:25:33;;;;;;;26.33;15.35;;;;;;;;;;5033739;28;20404;-78
2023/05/20 03:27:58;;;;;;;32.30;16.35;;;;;;;;;;5017760;28;20079;-79
2023/05/20 03:30:25;;;;;;;31.70;15.95;;;;;;;;;;5034321;28;20025;-78
2023/05/20 03:32:50;;;;;;;26.65;15.13;;;;;;;;;;5034056;28;20116;-77
2023/05/20 03:35:16;;;;;;;29.02;16.20;;;;;;;;;;5051972;28;20117;-77
2023/05/20 03:37:43;;;;;;;31.88;16.98;;;;;;;;;;5034899;28;20052;-78
2023/05/20 03:40:09;;;;;;;32.65;15.88;;;;;;;;;;5034921;28;20029;-77
2023/05/20 03:42:38;;;;;;;28.83;14.68;;;;;;;;;;5033861;28;20093;-76
2023/05/20 03:45:05;;;;;;;31.83;17.45;;;;;;;;;;5028482;28;20355;-76
2023/05/20 03:47:31;;;;;;;27.65;16.33;;;;;;;;;;5051789;28;20021;-76
2023/05/20 03:49:58;;;;;;;31.10;16.08;;;;;;;;;;5033592;28;20032;-77
2023/05/20 03:52:23;;;;;;;30.20;16.50;;;;;;;;;;5016538;28;20485;-75
2023/05/20 03:54:49;;;;;;;27.80;15.68;;;;;;;;;;5050873;28;20024;-79
2023/05/20 03:57:15;;;;;;;33.25;17.45;;;;;;;;;;5070864;28;20023;-76
2023/05/20 03:59:40;;;;;;;31.60;16.42;;;;;;;;;;5070655;28;20408;-78
2023/05/20 04:02:06;;;;;;;29.55;15.65;;;;;;;;;;5052528;28;20029;-77
2023/05/20 04:04:32;;;;;;;26.23;15.05;;;;;;;;;;5070743;28;20059;-78
2023/05/20 04:07:02;;;;;;;29.80;15.55;;;;;;;;;;5052575;28;20024;-78
2023/05/20 04:09:28;;;;;;;24.83;15.27;;;;;;;;;;5071250;28;20052;-78
2023/05/20 04:11:53;;;;;;;28.40;15.55;;;;;;;;;;5053753;28;20035;-77
2023/05/20 04:14:19;;;;;;;30.08;16.35;;;;;;;;;;5052697;28;20032;-77
2023/05/20 04:16:45;;;;;;;31.25;16.65;;;;;;;;;;5052358;28;20047;-76
2023/05/20 04:19:11;;;;;;;32.13;17.02;;;;;;;;;;5070366;28;20032;-78
2023/05/20 04:21:37;;;;;;;28.80;15.65;;;;;;;;;;5052466;28;20028;-77
2023/05/20 04:24:03;;;;;;;26.48;15.10;;;;;;;;;;5052180;28;20464;-76
2023/05/20 04:26:29;;;;;;;28.98;15.90;;;;;;;;;;5070451;28;20032;-77
2023/05/20 04:28:57;;;;;;;27.55;14.82;;;;;;;;;;5052186;28;20036;-78
2023/05/20 04:31:25;;;;;;;27.73;15.93;;;;;;;;;;5052524;28;20029;-77
2023/05/20 04:33:54;;;;;;;28.13;15.32;;;;;;;;;;5070510;28;20031;-77
2023/05/20 04:36:20;;;;;;;30.75;16.55;;;;;;;;;;5052131;28;20025;-77
2023/05/20 04:38:47;;;;;;;25.17;14.85;;;;;;;;;;5052245;28;20127;-77
2023/05/20 04:41:12;;;;;;;26.08;14.95;;;;;;;;;;5052095;28;20025;-77
2023/05/20 04:43:38;;;;;;;28.85;16.65;;;;;;;;;;5052239;28;20073;-78
2023/05/20 04:46:07;;;;;;;29.50;16.85;;;;;;;;;;5069953;28;20024;-77
2023/05/20 04:48:33;;;;;;;34.53;15.93;;;;;;;;;;5051693;28;20020;-79
2023/05/20 04:50:59;;;;;;;28.00;15.77;;;;;;;;;;5070143;28;20111;-78
2023/05/20 04:53:29;;;;;;;24.30;14.82;;;;;;;;;;5051884;28;20423;-77
2023/05/20 04:55:55;;;;;;;27.90;15.57;;;;;;;;;;5051728;28;20109;-77
2023/05/20 04:58:23;;;;;;;31.70;16.95;;;;;;;;;;5051939;28;20114;-78
2023/05/20 05:00:50;;;;;;;28.52;16.35;;;;;;;;;;5070289;28;20456;-78
2023/05/20 05:03:16;;;;;;;26.95;15.88;;;;;;;;;;5051989;28;20063;-76
2023/05/20 05:05:42;;;;;;;28.88;16.33;;;;;;;;;;5073410;28;20103;-79
2023/05/20 05:08:10;;;;;;;26.40;15.13;;;;;;;;;;5071381;28;20472;-78
2023/05/20 05:10:38;;;;;;;28.33;15.65;;;;;;;;;;5052026;28;20043;-76
2023/05/20 05:13:03;;;;;;;24.48;16.17;;;;;;;;;;5069757;28;20051;-76
2023/05/20 05:15:29;;;;;;;30.02;15.77;;;;;;;;;;5069497;28;20044;-76
2023/05/20 05:17:56;;;;;;;27.95;15.23;;;;;;;;;;5051280;28;20043;-77
2023/05/20 05:20:22;;;;;;;24.95;14.93;;;;;;;;;;5069836;28;20047;-78
2023/05/20 05:22:49;;;;;;;24.77;16.27;;;;;;;;;;5051881;28;20036;-77
2023/05/20 05:25:15;;;;;;;30.20;15.48;;;;;;;;;;5051588;28;20032;-77
2023/05/20 05:27:41;;;;;;;25.45;15.13;;;;;;;;;;5070035;28;20044;-80
2023/05/20 05:30:07;;;;;;;25.17;14.25;;;;;;;;;;5051499;28;20035;-77
2023/05/20 05:32:33;;;;;;;24.40;15.32;;;;;;;;;;5051587;28;20086;-78
2023/05/20 05:34:58;;;;;;;25.75;14.50;;;;;;;;;;5051424;28;20036;-78
2023/05/20 05:37:24;;;;;;;25.75;14.40;;;;;;;;;;5051447;28;20029;-78
2023/05/20 05:39:50;;;;;;;26.17;14.57;;;;;;;;;;5069865;28;20106;-76
2023/05/20 05:42:16;;;;;;;20.95;13.23;;;;;;;;;;5069431;28;20036;-77
2023/05/20 05:44:43;;;;;;;23.10;14.07;;;;;;;;;;5069388;28;20028;-77
2023/05/20 05:47:10;;;;;;;29.02;16.27;;;;;;;;;;5069371;28;20081;-78
2023/05/20 05:49:36;;;;;;;23.98;14.57;;;;;;;;;;5051876;28;20024;-80
2023/05/20 05:52:01;;;;;;;26.52;14.68;;;;;;;;;;5069841;28;20380;-78
2023/05/20 05:54:27;;;;;;;24.85;13.98;;;;;;;;;;5070039;28;20051;-76
2023/05/20 05:56:53;;;;;;;30.52;14.38;;;;;;;;;;5069721;28;20511;-77
2023/05/20 05:59:19;;;;;;;26.20;15.00;;;;;;;;;;5051648;28;20086;-78
2023/05/20 06:01:44;;;;;;;27.55;14.23;;;;;;;;;;5052213;28;20028;-78
2023/05/20 06:04:10;;;;;;;24.70;14.80;;;;;;;;;;5052241;28;20129;-79
2023/05/20 06:06:36;;;;;;;28.25;18.15;;;;;;;;;;5070232;28;20033;-78
2023/05/20 06:09:02;;;;;;;26.73;16.55;;;;;;;;;;5069656;28;20105;-77
2023/05/20 06:11:27;;;;;;;22.60;14.35;;;;;;;;;;5069938;28;20043;-77
2023/05/20 06:13:53;;;;;;;27.27;15.30;;;;;;;;;;5069206;28;20492;-76
2023/05/20 06:16:18;;;;;;;24.10;14.68;;;;;;;;;;5069148;28;20025;-78
2023/05/20 06:18:49;;;;;;;25.98;15.35;;;;;;;;;;5072342;28;20075;-79
2023/05/20 06:21:16;;;;;;;29.35;15.85;;;;;;;;;;5054681;28;20029;-79
2023/05/20 06:23:41;;;;;;;30.48;16.48;;;;;;;;;;5054991;28;20028;-79
2023/05/20 06:26:07;;;;;;;25.60;14.65;;;;;;;;;;5072515;28;20093;-81
2023/05/20 06:28:32;;;;;;;27.15;15.18;;;;;;;;;;5054834;28;20375;-78
2023/05/20 06:30:58;;;;;;;25.65;14.38;;;;;;;;;;5072743;28;20028;-76
2023/05/20 06:33:24;;;;;;;28.45;14.80;;;;;;;;;;5072563;28;20025;-76
2023/05/20 06:35:52;;;;;;;24.95;14.63;;;;;;;;;;5072081;28;20081;-79
2023/05/20 06:38:18;;;;;;;32.28;14.95;;;;;;;;;;5071972;28;20028;-77
2023/05/20 06:40:46;;;;;;;24.42;14.57;;;;;;;;;;5072413;28;20043;-78
2023/05/20 06:43:12;;;;;;;23.02;14.43;;;;;;;;;;5072579;28;20139;-79
2023/05/20 06:45:38;;;;;;;26.35;15.25;;;;;;;;;;5072526;28;20111;-78
2023/05/20 06:48:03;;;;;;;22.52;13.85;;;;;;;;;;5054508;28;20116;-78
2023/05/20 06:50:29;;;;;;;24.23;14.10;;;;;;;;;;5054385;28;20052;-78
2023/05/20 06:52:54;;;;;;;29.40;15.30;;;;;;;;;;5055134;28;20743;-79
2023/05/20 06:55:20;;;;;;;26.58;15.55;;;;;;;;;;5055012;28;20054;-77
2023/05/20 06:57:46;;;;;;;24.52;14.63;;;;;;;;;;5054884;28;20032;-77
2023/05/20 07:00:12;;;;;;;25.05;13.48;;;;;;;;;;5073403;28;20070;-76
2023/05/20 07:02:39;;;;;;;26.23;14.82;;;;;;;;;;5073577;28;20043;-77
2023/05/20 07:05:05;;;;;;;23.30;14.90;;;;;;;;;;5057307;28;20085;-79
2023/05/20 07:07:31;;;;;;;23.55;14.88;;;;;;;;;;5055888;28;20441;-78
2023/05/20 07:09:57;;;;;;;22.65;13.63;;;;;;;;;;5078329;28;20035;-79
2023/05/20 07:12:23;;;;;;;26.42;14.95;;;;;;;;;;5077728;28;20032;-79
2023/05/20 07:14:48;;;;;;;23.35;13.75;;;;;;;;;;5078658;28;20059;-79
2023/05/20 07:17:14;;;;;;;25.00;15.32;;;;;;;;;;5066847;28;20033;-79
2023/05/20 07:19:39;;;;;;;22.00;13.30;;;;;;;;;;5064124;28;20028;-78
2023/05/20 07:22:05;;;;;;;26.27;14.65;;;;;;;;;;5077003;28;20103;-77
2023/05/20 07:24:30;;;;;;;24.52;14.18;;;;;;;;;;5077170;28;20472;-78
2023/05/20 07:26:56;;;;;;;23.20;14.77;;;;;;;;;;5061136;28;20032;-77
2023/05/20 07:29:22;;;;;;;22.65;13.15;;;;;;;;;;5060917;28;20039;-77
2023/05/20 07:31:47;;;;;;;27.45;14.50;;;;;;;;;;5060532;28;20681;-79
2023/05/20 07:34:12;;;;;;;22.45;13.63;;;;;;;;;;5074070;28;20469;-79
2023/05/20 07:36:38;;;;;;;23.23;13.98;;;;;;;;;;5072539;28;20024;-78
2023/05/20 07:39:04;;;;;;;25.00;13.85;;;;;;;;;;5054848;28;20048;-79
2023/05/20 07:41:30;;;;;;;24.10;14.77;;;;;;;;;;5054957;28;20039;-77
2023/05/20 07:43:55;;;;;;;26.60;15.35;;;;;;;;;;5074365;28;20025;-78
2023/05/20 07:46:21;;;;;;;21.65;13.40;;;;;;;;;;5073677;28;20035;-79
2023/05/20 07:48:46;;;;;;;23.20;14.50;;;;;;;;;;5073253;28;20032;-76
2023/05/20 07:51:12;;;;;;;19.35;13.30;;;;;;;;;;5073151;28;20409;-78
2023/05/20 07:53:38;;;;;;;23.90;14.00;;;;;;;;;;5072566;28;20048;-78
2023/05/20 07:56:03;;;;;;;24.50;14.85;;;;;;;;;;5071517;28;20503;-77
2023/05/20 07:58:30;;;;;;;21.70;14.00;;;;;;;;;;5072005;28;20027;-78
2023/05/20 08:00:56;;;;;;;23.33;14.40;;;;;;;;;;5036770;28;20037;-78
2023/05/20 08:03:22;;;;;;;25.15;14.82;;;;;;;;;;5071390;28;20178;-77
2023/05/20 08:05:47;;;;;;;23.98;14.13;;;;;;;;;;5071869;28;20581;-78
2023/05/20 08:08:13;;;;;;;22.98;13.25;;;;;;;;;;5053087;28;20054;-79
2023/05/20 08:10:40;;;;;;;19.98;12.75;;;;;;;;;;5053283;28;20020;-79
2023/05/20 08:13:05;;;;;;;20.50;13.60;;;;;;;;;;5070753;28;20123;-78
2023/05/20 08:15:31;;;;;;;23.25;12.45;;;;;;;;;;5070791;28;20052;-78
2023/05/20 08:17:56;;;;;;;19.58;12.45;;;;;;;;;;5053686;28;20467;-78
2023/05/20 08:20:22;;;;;;;22.08;13.40;;;;;;;;;;5052405;28;20027;-79
2023/05/20 08:22:47;;;;;;;25.88;12.95;;;;;;;;;;5052579;28;20543;-78
2023/05/20 08:25:13;;;;;;;23.55;12.18;;;;;;;;;;5070274;28;20074;-79
2023/05/20 08:27:40;;;;;;;23.13;14.55;;;;;;;;;;5070719;28;20119;-78
2023/05/20 08:30:08;;;;;;;22.85;14.68;;;;;;;;;;5053028;28;20217;-77
2023/05/20 08:32:34;;;;;;;24.88;13.40;;;;;;;;;;5070283;28;20036;-77
2023/05/20 08:35:01;;;;;;;20.80;12.82;;;;;;;;;;5070626;28;20030;-79
2023/05/20 08:37:27;;;;;;;26.85;13.18;;;;;;;;;;5070105;28;20029;-79
2023/05/20 08:39:53;;;;;;;20.70;12.85;;;;;;;;;;5052554;28;20055;-78
2023/05/20 08:42:22;;;;;;;25.83;12.80;;;;;;;;;;5051189;28;20320;-79
2023/05/20 08:44:48;;;;;;;22.45;12.52;;;;;;;;;;5052374;28;20479;-78
2023/05/20 08:47:14;;;;;;;19.23;12.15;;;;;;;;;;5052123;28;20036;-77
2023/05/20 08:49:41;;;;;;;19.45;12.60;;;;;;;;;;5070312;28;20037;-78
2023/05/20 08:52:10;;;;;;;19.48;12.05;;;;;;;;;;5051807;28;20043;-77
2023/05/20 08:54:44;;;;;;;19.77;12.18;;;;;;;;;;5069968;28;20027;-84
2023/05/20 08:57:12;;;;;;;21.33;12.82;;;;;;;;;;5051556;28;20079;-78
2023/05/20 08:59:43;;;;;;;21.02;12.65;;;;;;;;;;5070188;28;20046;-77
2023/05/20 09:02:10;;;;;;;19.75;12.88;;;;;;;;;;5051772;28;20098;-79
2023/05/20 09:04:36;;;;;;;20.70;12.63;;;;;;;;;;5070426;28;20369;-76
2023/05/20 09:07:02;;;;;;;20.77;12.73;;;;;;;;;;5051734;28;20025;-78
2023/05/20 09:09:29;;;;;;;20.40;13.38;;;;;;;;;;5070145;28;20151;-78
2023/05/20 09:11:54;;;;;;;20.55;12.60;;;;;;;;;;5054116;28;20128;-76
2023/05/20 09:14:20;;;;;;;20.23;13.00;;;;;;;;;;5080173;28;20546;-77
2023/05/20 09:16:47;;;;;;;21.25;13.02;;;;;;;;;;5035049;28;20024;-79
2023/05/20 09:19:13;;;;;;;23.08;13.68;;;;;;;;;;5069891;28;20035;-76
2023/05/20 09:21:40;;;;;;;20.63;13.23;;;;;;;;;;5069617;28;20037;-78
2023/05/20 09:24:07;;;;;;;17.85;12.57;;;;;;;;;;5069637;28;20024;-80
2023/05/20 09:26:32;;;;;;;19.70;12.73;;;;;;;;;;5051240;28;20029;-76
2023/05/20 09:28:58;;;;;;;20.17;12.18;;;;;;;;;;5069936;28;20106;-78
2023/05/20 09:31:30;;;;;;;17.00;11.73;;;;;;;;;;5051092;28;20460;-78
2023/05/20 09:33:55;;;;;;;17.55;12.48;;;;;;;;;;5051465;28;20103;-78
2023/05/20 09:36:22;;;;;;;19.08;11.85;;;;;;;;;;5070394;28;20168;-77
2023/05/20 09:38:53;;;;;;;19.02;11.70;;;;;;;;;;5071398;28;20107;-77
2023/05/20 09:41:23;;;;;;;21.83;12.70;;;;;;;;;;5069259;28;20024;-78
2023/05/20 09:43:51;;;;;;;19.60;12.68;;;;;;;;;;5069534;28;20059;-76
2023/05/20 09:46:17;;;;;;;17.83;11.05;;;;;;;;;;5050902;28;20024;-78
2023/05/20 09:48:43;;;;;;;20.83;11.75;;;;;;;;;;5051224;28;20031;-77
2023/05/20 09:51:10;;;;;;;19.00;12.55;;;;;;;;;;5050548;28;20384;-77
2023/05/20 09:53:36;;;;;;;17.00;11.48;;;;;;;;;;5054100;28;20028;-77
2023/05/20 09:56:02;;;;;;;16.80;11.60;;;;;;;;;;5073049;28;20044;-77
2023/05/20 09:58:29;;;;;;;21.13;12.18;;;;;;;;;;5054927;28;20024;-78
2023/05/20 10:00:55;;;;;;;14.70;11.30;;;;;;;;;;5038905;28;20029;-76
2023/05/20 10:03:27;;;;;;;16.42;11.43;;;;;;;;;;5073569;28;20606;-77
2023/05/20 10:06:08;;;;;;;19.67;11.65;;;;;;;;;;5073305;28;20507;-78
2023/05/20 10:09:18;;;;;;;18.17;10.20;;;;;;;;;;5073180;28;20025;-78
2023/05/20 10:12:02;;;;;;;14.57;10.15;;;;;;;;;;5076299;28;20131;-77
2023/05/20 10:14:35;;;;;;;16.15;11.43;;;;;;;;;;5073208;28;20029;-77
2023/05/20 10:17:13;;;;;;;17.70;11.48;;;;;;;;;;5054361;28;20029;-79
2023/05/20 10:19:38;;;;;;;16.45;10.90;;;;;;;;;;5054268;28;20032;-78
2023/05/20 10:22:07;;;;;;;19.08;10.43;;;;;;;;;;5072327;28;20077;-78
2023/05/20 10:24:37;;;;;;;15.40;11.50;;;;;;;;;;5054066;28;20024;-78
2023/05/20 10:27:07;;;;;;;17.70;11.45;;;;;;;;;;5072208;28;20074;-76
2023/05/20 10:29:45;;;;;;;16.52;11.90;;;;;;;;;;5072246;28;20119;-78
2023/05/20 10:32:22;;;;;;;16.13;11.65;;;;;;;;;;5072528;28;20029;-78
2023/05/20 10:34:49;;;;;;;17.55;11.15;;;;;;;;;;5072464;28;20060;-78
2023/05/20 10:37:26;;;;;;;17.10;11.23;;;;;;;;;;5071891;28;20028;-78
2023/05/20 10:40:01;;;;;;;17.20;11.45;;;;;;;;;;5054033;28;20108;-78
2023/05/20 10:42:29;;;;;;;18.27;11.73;;;;;;;;;;5053698;28;20461;-78
2023/05/20 10:44:55;;;;;;;17.77;10.13;;;;;;;;;;5072254;28;20025;-79
2023/05/20 10:47:21;;;;;;;14.02;10.48;;;;;;;;;;5053920;28;20444;-77
2023/05/20 10:49:46;;;;;;;21.00;10.88;;;;;;;;;;5053633;28;20123;-78
2023/05/20 10:52:13;;;;;;;13.32;10.95;;;;;;;;;;5072190;28;20028;-79
2023/05/20 10:54:44;;;;;;;16.63;10.40;;;;;;;;;;5054616;28;20056;-77
2023/05/20 10:57:10;;;;;;;;;;;;;;;;;;5054685;28;20565;-77
2023/05/20 10:59:36;;;;;;;14.27;10.32;;;;;;;;;;5072215;28;19998;-77
2023/05/20 11:02:02;;;;;;;17.17;11.20;;;;;;;;;;5054139;28;20115;-78
2023/05/20 11:04:28;;;;;;;17.33;11.10;;;;;;;;;;5052772;28;20054;-77
2023/05/20 11:06:57;;;;;;;15.55;10.93;;;;;;;;;;5071693;28;20036;-76
2023/05/20 11:09:22;;;;;;;15.80;10.57;;;;;;;;;;5072158;28;20020;-81
2023/05/20 11:11:52;;;;;;;15.82;10.50;;;;;;;;;;5053931;28;20035;-76
2023/05/20 11:14:18;;;;;;;15.07;10.32;;;;;;;;;;5059375;28;20020;-78
2023/05/20 11:16:45;;;;;;;15.15;10.27;;;;;;;;;;5061607;28;20024;-79
2023/05/20 11:19:15;;;;;;;18.60;11.05;;;;;;;;;;5074556;28;20024;-78
2023/05/20 11:21:45;;;;;;;17.42;11.10;;;;;;;;;;5072974;28;20036;-78
2023/05/20 11:24:11;;;;;;;13.13;9.88;;;;;;;;;;5037217;28;20153;-77
2023/05/20 11:26:37;;;;;;;13.93;10.30;;;;;;;;;;5053573;28;20111;-77
2023/05/20 11:29:03;;;;;;;12.55;9.93;;;;;;;;;;5056168;28;20120;-79
2023/05/20 11:31:32;;;;;;;13.57;9.93;;;;;;;;;;5079196;28;20020;-79
2023/05/20 11:34:00;;;;;;;12.10;9.85;;;;;;;;;;5061100;28;20055;-79
2023/05/20 11:36:27;;;;;;;16.92;10.40;;;;;;;;;;5072981;28;20087;-77
2023/05/20 11:38:54;;;;;;;19.27;11.15;;;;;;;;;;5065061;28;20036;-77
2023/05/20 11:41:24;;;;;;;12.90;9.88;;;;;;;;;;5057773;28;20605;-79
2023/05/20 11:43:58;;;;;;;15.30;10.82;;;;;;;;;;5053091;28;20094;-76
2023/05/20 11:46:23;;;;;;;19.85;11.30;;;;;;;;;;5070661;28;20039;-76
2023/05/20 11:48:56;;;;;;;17.92;10.65;;;;;;;;;;5052209;28;20020;-76
2023/05/20 11:51:28;;;;;;;15.25;10.23;;;;;;;;;;5052429;28;20420;-75
2023/05/20 11:54:01;;;;;;;15.57;10.10;;;;;;;;;;5052420;28;20090;-74
2023/05/20 11:56:30;;;;;;;15.80;10.18;;;;;;;;;;5051707;28;20397;-75
2023/05/20 11:59:02;;;;;;;11.90;9.68;;;;;;;;;;5070039;28;20430;-74
2023/05/20 12:01:32;;;;;;;15.25;9.57;;;;;;;;;;5069827;28;20050;-75
2023/05/20 12:03:59;;;;;;;13.80;9.57;;;;;;;;;;5070991;28;20465;-75
2023/05/20 12:06:25;;;;;;;12.85;10.68;;;;;;;;;;5052391;28;20127;-74
2023/05/20 12:08:52;;;;;;;14.60;9.50;;;;;;;;;;5052551;28;20120;-74
2023/05/20 12:11:17;;;;;;;12.07;9.82;;;;;;;;;;5069966;28;20516;-77
2023/05/20 12:13:43;;;;;;;10.85;9.38;;;;;;;;;;5070000;28;20071;-75
2023/05/20 12:16:08;;;;;;;16.17;10.02;;;;;;;;;;5055179;28;20120;-74
2023/05/20 12:18:34;;;;;;;15.02;9.63;;;;;;;;;;5052142;28;20093;-76
2023/05/20 12:21:00;;;;;;;14.65;10.00;;;;;;;;;;5070084;28;20071;-74
2023/05/20 12:23:25;;;;;;;14.15;10.05;;;;;;;;;;5069914;28;20081;-75
2023/05/20 12:25:51;;;;;;;14.13;10.15;;;;;;;;;;5051846;28;20025;-75
2023/05/20 12:28:17;;;;;;;15.13;10.20;;;;;;;;;;5069966;28;20430;-75
2023/05/20 12:30:42;;;;;;;13.73;10.02;;;;;;;;;;5070162;28;20638;-75
2023/05/20 12:33:08;;;;;;;12.95;10.48;;;;;;;;;;5070071;28;20043;-75
2023/05/20 12:35:40;;;;;;;11.55;9.02;;;;;;;;;;5070361;28;20021;-75
2023/05/20 12:38:07;;;;;;;12.48;9.98;;;;;;;;;;5053129;28;20032;-78
2023/05/20 12:40:33;;;;;;;11.50;9.05;;;;;;;;;;5052857;28;20603;-79
2023/05/20 12:43:00;;;;;;;11.73;9.07;;;;;;;;;;5071009;28;20085;-78
2023/05/20 12:45:26;;;;;;;13.65;8.70;;;;;;;;;;5053054;28;20032;-77
2023/05/20 12:47:52;;;;;;;11.50;9.10;;;;;;;;;;5052687;28;20028;-78
2023/05/20 12:50:18;;;;;;;11.35;8.82;;;;;;;;;;5070966;28;20317;-79
2023/05/20 12:52:44;;;;;;;17.65;8.70;;;;;;;;;;5070455;28;20512;-78
2023/05/20 12:55:12;;;;;;;11.77;8.68;;;;;;;;;;5052504;28;20074;-77
2023/05/20 12:57:39;;;;;;;10.68;8.18;;;;;;;;;;5053462;28;20056;-75
2023/05/20 13:00:07;;;;;;;15.57;8.77;;;;;;;;;;5070520;28;20447;-77
2023/05/20 13:02:33;;;;;;;13.60;8.75;;;;;;;;;;5053527;28;20068;-79
2023/05/20 13:04:58;;;;;;;12.27;8.98;;;;;;;;;;5051663;28;20141;-76
2023/05/20 13:07:25;;;;;;;12.13;9.75;;;;;;;;;;5051108;28;20028;-78
2023/05/20 13:09:51;;;;;;;23.08;9.82;;;;;;;;;;5050486;28;20040;-78
2023/05/20 13:12:17;;;;;;;14.45;9.75;;;;;;;;;;5051403;28;20032;-76
2023/05/20 13:14:42;;;;;;;12.35;9.20;;;;;;;;;;5053437;28;20043;-78
2023/05/20 13:17:08;;;;;;;13.32;9.10;;;;;;;;;;5074819;28;20039;-77
2023/05/20 13:19:33;;;;;;;13.32;8.68;;;;;;;;;;5051389;28;20491;-78
2023/05/20 13:21:59;;;;;;;10.32;8.25;;;;;;;;;;5069507;28;20032;-78
2023/05/20 13:24:25;;;;;;;11.85;8.45;;;;;;;;;;5069380;28;20028;-78
2023/05/20 13:26:50;;;;;;;11.93;9.38;;;;;;;;;;5051214;28;20064;-77
2023/05/20 13:29:16;;;;;;;27.75;10.98;;;;;;;;;;5055590;28;20044;-76
2023/05/20 13:31:42;;;;;;;11.98;8.32;;;;;;;;;;5055488;28;20028;-78
2023/05/20 13:34:08;;;;;;;11.43;9.68;;;;;;;;;;5055807;28;20075;-78
2023/05/20 13:36:34;;;;;;;16.05;10.25;;;;;;;;;;5073832;28;20017;-78
2023/05/20 13:39:01;;;;;;;16.35;10.55;;;;;;;;;;5073843;28;20028;-78
2023/05/20 13:41:27;;;;;;;14.68;8.90;;;;;;;;;;5073514;28;20189;-78
2023/05/20 13:43:52;;;;;;;11.43;8.52;;;;;;;;;;5074484;28;20024;-78
2023/05/20 13:46:18;;;;;;;13.13;9.60;;;;;;;;;;5073393;28;20115;-76
2023/05/20 13:48:43;;;;;;;10.40;8.73;;;;;;;;;;5055205;28;20025;-79
2023/05/20 13:51:09;;;;;;;15.60;9.00;;;;;;;;;;5054756;28;20025;-78
2023/05/20 13:53:35;;;;;;;10.82;8.15;;;;;;;;;;5055218;28;20031;-78
2023/05/20 13:56:00;;;;;;;14.10;8.30;;;;;;;;;;5055287;28;20044;-77
2023/05/20 13:58:26;;;;;;;10.95;8.13;;;;;;;;;;5055080;28;20189;-76
2023/05/20 14:00:52;;;;;;;10.75;7.78;;;;;;;;;;5055244;28;20066;-77
2023/05/20 14:03:18;;;;;;;11.88;7.95;;;;;;;;;;5073713;28;20102;-77
2023/05/20 14:05:44;;;;;;;10.05;8.02;;;;;;;;;;5054672;28;20029;-78
2023/05/20 14:08:09;;;;;;;31.63;19.05;;;;;;;;;;5073565;28;20028;-77
2023/05/20 14:10:35;;;;;;;15.75;9.02;;;;;;;;;;5054826;28;20043;-77
2023/05/20 14:13:01;;;;;;;9.48;8.35;;;;;;;;;;5056144;28;20256;-78
2023/05/20 14:15:29;;;;;;;12.65;8.15;;;;;;;;;;5054492;28;20025;-77
2023/05/20 14:17:57;;;;;;;10.77;8.57;;;;;;;;;;5054417;28;20116;-78